CST,Max TemperatureF,Mean TemperatureF,Min TemperatureF,Max Dew PointF,MeanDew PointF,Min DewpointF,Max Humidity, Mean Humidity, Min Humidity, Max Sea Level PressureIn, Mean Sea Level PressureIn, Min Sea Level PressureIn, Max VisibilityMiles, Mean VisibilityMiles, Min VisibilityMiles, Max Wind SpeedMPH, Mean Wind SpeedMPH, Max Gust SpeedMPH,PrecipitationIn, CloudCover, Events, WindDirDegrees
2013-2-1,25,9,-7,18,0,-11,82,74,66,30.38,30.24,30.01,10,10,10,18,9,23,0.00,4,,223
2013-2-2,32,22,13,29,16,8,95,80,65,30.19,30.08,29.98,10,9,2,21,12,29,0.00,5,Snow,295
2013-2-3,33,24,15,25,19,11,86,77,62,30.16,30.02,29.76,10,10,5,25,15,32,0.00,2,,241
2013-2-4,32,25,18,27,19,16,93,85,77,30.02,29.92,29.74,10,10,10,21,8,25,0.00,6,,346
2013-2-5,43,32,21,34,27,19,96,84,67,30.10,29.92,29.77,10,9,4,20,10,29,0.00,2,,289
2013-2-6,42,34,25,35,31,26,99,89,72,30.10,29.99,29.89,10,7,3,15,6,22,0.00,1,,136
2013-2-7,35,31,27,33,29,24,99,92,87,30.21,30.01,29.88,10,6,2,22,9,28,0.02,7,Rain,347
2013-2-8,27,25,23,25,23,21,93,89,85,30.35,30.29,30.21,10,10,7,16,11,18,0.00,8,,98
2013-2-9,36,31,26,32,28,24,96,90,81,30.22,30.03,29.78,10,7,3,21,15,24,0.01,6,Rain,146
2013-2-10,46,38,31,43,33,25,99,90,73,29.79,29.47,29.24,10,7,1,37,19,48,0.07,8,Rain-Snow,182
2013-2-11,31,29,27,25,23,21,83,78,74,30.12,29.96,29.62,10,10,10,37,25,48,0.00,7,,296
2013-2-12,44,32,20,29,25,18,93,77,47,30.14,30.00,29.87,10,10,7,20,10,22,0.00,1,,247
2013-2-13,49,36,23,33,29,22,94,79,50,29.87,29.77,29.68,10,10,10,15,9,17,0.00,2,,261
2013-2-14,41,32,22,32,27,14,88,79,63,30.20,29.94,29.72,10,10,10,21,14,31,0.00,5,,313
2013-2-15,28,22,15,16,13,9,87,71,56,30.33,30.29,30.21,10,10,10,16,12,21,0.00,1,,331
2013-2-16,35,22,10,25,15,8,92,78,43,30.30,30.16,30.07,10,10,10,9,6,,0.00,1,,237
2013-2-17,46,32,19,29,24,17,91,75,50,30.06,29.88,29.62,10,10,10,21,10,28,0.00,1,,135
2013-2-18,38,26,15,32,23,9,95,80,68,29.95,29.71,29.55,10,10,1,31,12,38,0.00,3,Snow,313
2013-2-19,22,14,5,9,5,0,79,65,48,30.38,30.17,29.96,10,10,10,30,18,37,0.00,3,,315
2013-2-20,22,11,0,11,2,-5,81,64,46,30.43,30.36,30.27,10,10,10,15,9,20,0.00,1,,56
2013-2-21,25,20,16,22,15,11,96,79,60,30.30,30.09,29.83,10,7,0,23,13,31,0.00,5,Snow,82
2013-2-22,24,22,19,22,19,15,96,87,80,29.99,29.88,29.77,10,8,1,21,12,25,0.00,7,Snow,316
2013-2-23,29,16,3,21,12,1,95,86,67,29.97,29.93,29.87,10,9,5,12,7,,0.00,0,,197
2013-2-24,37,24,11,29,21,10,97,85,66,30.07,30.00,29.92,10,7,3,8,4,,0.00,3,,130
2013-2-25,37,32,28,32,29,27,96,89,76,30.08,30.02,29.92,7,4,2,10,4,,0.00,5,,19
2013-2-26,31,29,27,30,27,25,96,92,82,29.91,29.80,29.74,7,3,0,20,13,25,0.00,6,Snow,3
2013-2-27,32,28,23,26,24,20,93,87,78,30.01,29.87,29.80,10,6,1,25,18,31,0.00,7,Snow,335
2013-2-28,31,26,21,25,23,18,90,85,76,30.18,30.12,30.02,10,10,7,20,15,25,0.00,7,,333